sensor_id;sensor_type;location;lat;lon;timestamp;P1;durP1;ratioP1;P2;durP2;ratioP2
55497;SDS011;41357;52.806;18.268;2023-07-08T09:31:54;3.33;;;2.00;;
55497;SDS011;41357;52.806;18.268;2023-07-08T09:34:22;4.03;;;1.73;;
55497;SDS011;41357;52.806;18.268;2023-07-08T09:36:49;4.05;;;1.77;;
55497;SDS011;41357;52.806;18.268;2023-07-08T09:39:19;2.60;;;1.77;;
55497;SDS011;41357;52.806;18.268;2023-07-08T09:41:47;2.03;;;1.52;;
55497;SDS011;41357;52.806;18.268;2023-07-08T09:46:39;3.90;;;1.88;;
55497;SDS011;41357;52.806;18.268;2023-07-08T09:49:26;3.05;;;1.55;;
55497;SDS011;41357;52.806;18.268;2023-07-08T09:51:53;3.45;;;1.70;;
55497;SDS011;41357;52.806;18.268;2023-07-08T09:54:21;4.03;;;2.05;;
55497;SDS011;41357;52.806;18.268;2023-07-08T09:56:58;2.47;;;1.60;;
55497;SDS011;41357;52.806;18.268;2023-07-08T09:59:28;3.17;;;1.95;;
55497;SDS011;41357;52.806;18.268;2023-07-08T10:01:56;2.85;;;1.80;;
55497;SDS011;41357;52.806;18.268;2023-07-08T10:04:24;2.58;;;1.77;;
55497;SDS011;41357;52.806;18.268;2023-07-08T10:06:50;5.85;;;1.90;;
55497;SDS011;41357;52.806;18.268;2023-07-08T10:09:20;2.38;;;1.50;;
55497;SDS011;41357;52.806;18.268;2023-07-08T10:11:54;4.57;;;1.77;;
55497;SDS011;41357;52.806;18.268;2023-07-08T10:16:50;8.48;;;2.08;;
55497;SDS011;41357;52.806;18.268;2023-07-08T10:19:17;2.25;;;1.80;;
55497;SDS011;41357;52.806;18.268;2023-07-08T10:24:30;4.68;;;1.90;;
55497;SDS011;41357;52.806;18.268;2023-07-08T10:27:05;2.13;;;1.90;;
55497;SDS011;41357;52.806;18.268;2023-07-08T10:29:39;1.88;;;1.70;;
55497;SDS011;41357;52.806;18.268;2023-07-08T10:34:39;4.95;;;1.83;;
55497;SDS011;41357;52.806;18.268;2023-07-08T10:43:03;4.82;;;1.90;;
55497;SDS011;41357;52.806;18.268;2023-07-08T11:06:26;3.08;;;1.70;;
55497;SDS011;41357;52.806;18.268;2023-07-08T11:08:45;4.00;;;1.80;;
55497;SDS011;41357;52.806;18.268;2023-07-08T11:13:39;2.17;;;1.38;;
55497;SDS011;41357;52.806;18.268;2023-07-08T11:16:12;7.18;;;2.03;;
55497;SDS011;41357;52.806;18.268;2023-07-08T11:18:48;3.45;;;1.52;;
55497;SDS011;41357;52.806;18.268;2023-07-08T11:21:24;2.78;;;1.70;;
55497;SDS011;41357;52.806;18.268;2023-07-08T11:23:55;3.15;;;1.80;;
55497;SDS011;41357;52.806;18.268;2023-07-08T11:28:52;2.53;;;1.80;;
55497;SDS011;41357;52.806;18.268;2023-07-08T11:31:19;2.30;;;1.90;;
55497;SDS011;41357;52.806;18.268;2023-07-08T11:33:46;2.35;;;1.60;;
55497;SDS011;41357;52.806;18.268;2023-07-08T11:36:12;4.03;;;1.52;;
55497;SDS011;41357;52.806;18.268;2023-07-08T11:38:47;2.90;;;1.60;;
55497;SDS011;41357;52.806;18.268;2023-07-08T11:41:15;3.60;;;1.70;;
55497;SDS011;41357;52.806;18.268;2023-07-08T11:46:11;1.67;;;1.40;;
55497;SDS011;41357;52.806;18.268;2023-07-08T11:48:43;3.88;;;1.73;;
55497;SDS011;41357;52.806;18.268;2023-07-08T11:53:37;2.35;;;1.60;;
55497;SDS011;41357;52.806;18.268;2023-07-08T12:03:49;2.00;;;1.48;;
55497;SDS011;41357;52.806;18.268;2023-07-08T12:09:02;2.90;;;1.80;;
55497;SDS011;41357;52.806;18.268;2023-07-08T12:11:40;2.92;;;1.60;;
55497;SDS011;41357;52.806;18.268;2023-07-08T12:14:06;3.25;;;1.70;;
55497;SDS011;41357;52.806;18.268;2023-07-08T12:16:33;2.42;;;1.60;;
55497;SDS011;41357;52.806;18.268;2023-07-08T12:19:00;4.60;;;2.00;;
55497;SDS011;41357;52.806;18.268;2023-07-08T12:21:29;3.15;;;1.85;;
55497;SDS011;41357;52.806;18.268;2023-07-08T12:23:56;2.90;;;1.50;;
55497;SDS011;41357;52.806;18.268;2023-07-08T12:26:28;3.53;;;1.90;;
55497;SDS011;41357;52.806;18.268;2023-07-08T12:28:55;3.90;;;1.73;;
55497;SDS011;41357;52.806;18.268;2023-07-08T12:31:22;2.85;;;2.00;;
55497;SDS011;41357;52.806;18.268;2023-07-08T12:33:50;2.88;;;1.95;;
55497;SDS011;41357;52.806;18.268;2023-07-08T12:36:20;4.18;;;1.90;;
55497;SDS011;41357;52.806;18.268;2023-07-08T12:38:47;4.22;;;2.65;;
55497;SDS011;41357;52.806;18.268;2023-07-08T12:41:15;4.25;;;1.88;;
55497;SDS011;41357;52.806;18.268;2023-07-08T12:43:42;2.72;;;1.90;;
55497;SDS011;41357;52.806;18.268;2023-07-08T12:46:09;2.95;;;1.73;;
55497;SDS011;41357;52.806;18.268;2023-07-08T12:48:36;2.05;;;1.60;;
55497;SDS011;41357;52.806;18.268;2023-07-08T12:51:03;2.13;;;1.83;;
55497;SDS011;41357;52.806;18.268;2023-07-08T12:53:29;2.72;;;1.90;;
55497;SDS011;41357;52.806;18.268;2023-07-08T12:55:57;2.88;;;1.92;;
55497;SDS011;41357;52.806;18.268;2023-07-08T12:58:28;2.47;;;1.98;;
55497;SDS011;41357;52.806;18.268;2023-07-08T13:00:55;3.15;;;1.88;;
55497;SDS011;41357;52.806;18.268;2023-07-08T13:03:26;2.10;;;1.77;;
55497;SDS011;41357;52.806;18.268;2023-07-08T13:05:53;2.85;;;2.05;;
55497;SDS011;41357;52.806;18.268;2023-07-08T13:08:21;4.22;;;1.88;;
55497;SDS011;41357;52.806;18.268;2023-07-08T13:10:48;4.47;;;1.83;;
55497;SDS011;41357;52.806;18.268;2023-07-08T13:13:19;5.30;;;2.50;;
55497;SDS011;41357;52.806;18.268;2023-07-08T13:15:46;3.03;;;1.85;;
55497;SDS011;41357;52.806;18.268;2023-07-08T13:18:15;2.58;;;1.77;;
55497;SDS011;41357;52.806;18.268;2023-07-08T13:23:08;4.03;;;1.88;;
55497;SDS011;41357;52.806;18.268;2023-07-08T13:25:36;2.55;;;2.20;;
55497;SDS011;41357;52.806;18.268;2023-07-08T13:28:25;3.33;;;2.05;;
55497;SDS011;41357;52.806;18.268;2023-07-08T13:30:54;2.38;;;1.58;;
55497;SDS011;41357;52.806;18.268;2023-07-08T13:33:21;3.30;;;2.17;;
55497;SDS011;41357;52.806;18.268;2023-07-08T13:35:47;3.10;;;2.00;;
55497;SDS011;41357;52.806;18.268;2023-07-08T13:38:15;3.20;;;1.55;;
55497;SDS011;41357;52.806;18.268;2023-07-08T13:40:46;2.45;;;1.75;;
55497;SDS011;41357;52.806;18.268;2023-07-08T13:43:13;3.08;;;1.77;;
55497;SDS011;41357;52.806;18.268;2023-07-08T13:45:43;2.50;;;1.80;;
55497;SDS011;41357;52.806;18.268;2023-07-08T13:51:00;8.05;;;1.92;;
55497;SDS011;41357;52.806;18.268;2023-07-08T13:53:33;2.78;;;1.95;;
55497;SDS011;41357;52.806;18.268;2023-07-08T13:56:00;2.72;;;1.85;;
55497;SDS011;41357;52.806;18.268;2023-07-08T13:58:27;4.10;;;1.85;;
55497;SDS011;41357;52.806;18.268;2023-07-08T14:00:54;2.92;;;1.83;;
55497;SDS011;41357;52.806;18.268;2023-07-08T14:03:20;2.40;;;1.55;;
55497;SDS011;41357;52.806;18.268;2023-07-08T14:05:47;2.38;;;1.75;;
55497;SDS011;41357;52.806;18.268;2023-07-08T14:08:13;3.33;;;2.00;;
55497;SDS011;41357;52.806;18.268;2023-07-08T14:10:40;2.42;;;1.80;;
55497;SDS011;41357;52.806;18.268;2023-07-08T14:13:06;3.35;;;2.28;;
55497;SDS011;41357;52.806;18.268;2023-07-08T14:15:32;4.20;;;2.35;;
55497;SDS011;41357;52.806;18.268;2023-07-08T14:18:01;9.43;;;2.45;;
55497;SDS011;41357;52.806;18.268;2023-07-08T14:20:28;2.07;;;1.67;;
55497;SDS011;41357;52.806;18.268;2023-07-08T14:22:55;3.20;;;2.13;;
55497;SDS011;41357;52.806;18.268;2023-07-08T14:25:21;2.20;;;1.80;;
55497;SDS011;41357;52.806;18.268;2023-07-08T14:27:51;3.22;;;1.80;;
55497;SDS011;41357;52.806;18.268;2023-07-08T14:33:21;2.58;;;1.80;;
55497;SDS011;41357;52.806;18.268;2023-07-08T14:35:47;2.78;;;1.88;;
55497;SDS011;41357;52.806;18.268;2023-07-08T14:38:13;2.70;;;1.85;;
55497;SDS011;41357;52.806;18.268;2023-07-08T14:40:40;2.90;;;1.90;;
55497;SDS011;41357;52.806;18.268;2023-07-08T14:43:10;2.88;;;1.90;;
55497;SDS011;41357;52.806;18.268;2023-07-08T14:45:41;2.95;;;1.70;;
55497;SDS011;41357;52.806;18.268;2023-07-08T14:48:12;3.40;;;2.05;;
55497;SDS011;41357;52.806;18.268;2023-07-08T14:50:38;2.80;;;2.00;;
55497;SDS011;41357;52.806;18.268;2023-07-08T14:53:05;4.88;;;2.63;;
55497;SDS011;41357;52.806;18.268;2023-07-08T14:55:31;2.80;;;2.10;;
55497;SDS011;41357;52.806;18.268;2023-07-08T14:57:57;5.50;;;2.10;;
55497;SDS011;41357;52.806;18.268;2023-07-08T15:00:24;2.97;;;1.98;;
55497;SDS011;41357;52.806;18.268;2023-07-08T15:02:52;3.90;;;2.15;;
55497;SDS011;41357;52.806;18.268;2023-07-08T15:05:19;3.55;;;2.15;;
55497;SDS011;41357;52.806;18.268;2023-07-08T15:07:49;3.55;;;1.90;;
55497;SDS011;41357;52.806;18.268;2023-07-08T15:10:16;2.65;;;1.85;;
55497;SDS011;41357;52.806;18.268;2023-07-08T15:12:42;2.25;;;1.83;;
55497;SDS011;41357;52.806;18.268;2023-07-08T15:15:15;3.45;;;2.13;;
55497;SDS011;41357;52.806;18.268;2023-07-08T15:17:41;5.03;;;2.20;;
55497;SDS011;41357;52.806;18.268;2023-07-08T15:20:11;2.80;;;1.77;;
55497;SDS011;41357;52.806;18.268;2023-07-08T15:22:41;3.50;;;2.05;;
55497;SDS011;41357;52.806;18.268;2023-07-08T15:25:08;2.63;;;1.83;;
55497;SDS011;41357;52.806;18.268;2023-07-08T15:27:34;2.35;;;1.95;;
55497;SDS011;41357;52.806;18.268;2023-07-08T15:30:01;2.58;;;1.90;;
55497;SDS011;41357;52.806;18.268;2023-07-08T15:32:27;6.32;;;2.40;;
55497;SDS011;41357;52.806;18.268;2023-07-08T15:34:53;2.60;;;2.20;;
55497;SDS011;41357;52.806;18.268;2023-07-08T15:37:19;3.63;;;1.80;;
55497;SDS011;41357;52.806;18.268;2023-07-08T15:39:45;3.42;;;2.35;;
55497;SDS011;41357;52.806;18.268;2023-07-08T15:42:11;4.57;;;2.28;;
55497;SDS011;41357;52.806;18.268;2023-07-08T15:44:38;2.58;;;2.00;;
55497;SDS011;41357;52.806;18.268;2023-07-08T15:47:04;1.88;;;1.58;;
55497;SDS011;41357;52.806;18.268;2023-07-08T15:49:32;5.40;;;2.40;;
55497;SDS011;41357;52.806;18.268;2023-07-08T15:51:59;4.88;;;2.33;;
55497;SDS011;41357;52.806;18.268;2023-07-08T15:54:25;2.80;;;2.30;;
55497;SDS011;41357;52.806;18.268;2023-07-08T15:56:52;3.55;;;2.03;;
55497;SDS011;41357;52.806;18.268;2023-07-08T15:59:25;2.25;;;1.77;;
55497;SDS011;41357;52.806;18.268;2023-07-08T16:01:52;5.30;;;2.38;;
55497;SDS011;41357;52.806;18.268;2023-07-08T16:06:45;2.38;;;2.00;;
55497;SDS011;41357;52.806;18.268;2023-07-08T16:09:11;5.43;;;2.30;;
55497;SDS011;41357;52.806;18.268;2023-07-08T16:11:37;2.80;;;2.15;;
55497;SDS011;41357;52.806;18.268;2023-07-08T16:14:03;8.55;;;2.33;;
55497;SDS011;41357;52.806;18.268;2023-07-08T16:16:29;3.95;;;2.47;;
55497;SDS011;41357;52.806;18.268;2023-07-08T16:18:55;4.10;;;2.00;;
55497;SDS011;41357;52.806;18.268;2023-07-08T16:21:22;2.97;;;2.30;;
55497;SDS011;41357;52.806;18.268;2023-07-08T16:23:49;2.83;;;2.08;;
55497;SDS011;41357;52.806;18.268;2023-07-08T16:26:15;4.05;;;2.22;;
55497;SDS011;41357;52.806;18.268;2023-07-08T16:28:45;3.03;;;2.35;;
55497;SDS011;41357;52.806;18.268;2023-07-08T16:31:12;5.07;;;2.53;;
55497;SDS011;41357;52.806;18.268;2023-07-08T16:33:39;4.60;;;2.15;;
55497;SDS011;41357;52.806;18.268;2023-07-08T16:36:09;3.13;;;2.13;;
55497;SDS011;41357;52.806;18.268;2023-07-08T16:38:37;5.90;;;2.67;;
55497;SDS011;41357;52.806;18.268;2023-07-08T16:41:03;7.68;;;2.25;;
55497;SDS011;41357;52.806;18.268;2023-07-08T16:43:30;4.00;;;2.17;;
55497;SDS011;41357;52.806;18.268;2023-07-08T16:45:56;4.97;;;2.40;;
55497;SDS011;41357;52.806;18.268;2023-07-08T16:48:23;6.35;;;2.60;;
55497;SDS011;41357;52.806;18.268;2023-07-08T16:50:49;3.95;;;2.35;;
55497;SDS011;41357;52.806;18.268;2023-07-08T16:53:15;6.57;;;2.63;;
55497;SDS011;41357;52.806;18.268;2023-07-08T16:55:41;3.42;;;2.35;;
55497;SDS011;41357;52.806;18.268;2023-07-08T16:58:08;4.57;;;2.78;;
55497;SDS011;41357;52.806;18.268;2023-07-08T17:00:35;17.55;;;3.28;;
55497;SDS011;41357;52.806;18.268;2023-07-08T17:03:02;3.90;;;2.60;;
55497;SDS011;41357;52.806;18.268;2023-07-08T17:05:30;4.70;;;2.50;;
55497;SDS011;41357;52.806;18.268;2023-07-08T17:07:56;4.28;;;2.63;;
55497;SDS011;41357;52.806;18.268;2023-07-08T17:10:22;3.90;;;2.75;;
55497;SDS011;41357;52.806;18.268;2023-07-08T17:12:49;3.72;;;2.50;;
55497;SDS011;41357;52.806;18.268;2023-07-08T17:15:15;5.57;;;2.80;;
55497;SDS011;41357;52.806;18.268;2023-07-08T17:17:47;2.88;;;2.22;;
55497;SDS011;41357;52.806;18.268;2023-07-08T17:20:22;10.13;;;2.55;;
55497;SDS011;41357;52.806;18.268;2023-07-08T17:22:49;3.38;;;2.40;;
55497;SDS011;41357;52.806;18.268;2023-07-08T17:25:16;7.30;;;2.70;;
55497;SDS011;41357;52.806;18.268;2023-07-08T17:27:43;5.28;;;2.75;;
55497;SDS011;41357;52.806;18.268;2023-07-08T17:30:10;3.28;;;2.38;;
55497;SDS011;41357;52.806;18.268;2023-07-08T17:32:36;2.95;;;2.13;;
55497;SDS011;41357;52.806;18.268;2023-07-08T17:35:03;3.13;;;2.40;;
55497;SDS011;41357;52.806;18.268;2023-07-08T17:37:29;4.70;;;2.70;;
55497;SDS011;41357;52.806;18.268;2023-07-08T17:39:55;4.57;;;2.28;;
55497;SDS011;41357;52.806;18.268;2023-07-08T17:42:21;2.67;;;2.33;;
55497;SDS011;41357;52.806;18.268;2023-07-08T17:44:48;3.53;;;2.47;;
55497;SDS011;41357;52.806;18.268;2023-07-08T17:47:14;2.95;;;2.25;;
55497;SDS011;41357;52.806;18.268;2023-07-08T17:49:41;4.35;;;2.55;;
55497;SDS011;41357;52.806;18.268;2023-07-08T17:52:10;7.57;;;2.67;;
55497;SDS011;41357;52.806;18.268;2023-07-08T17:54:36;3.58;;;2.50;;
55497;SDS011;41357;52.806;18.268;2023-07-08T17:57:03;5.65;;;3.03;;
55497;SDS011;41357;52.806;18.268;2023-07-08T17:59:29;4.47;;;2.45;;
55497;SDS011;41357;52.806;18.268;2023-07-08T18:01:55;9.82;;;2.90;;
55497;SDS011;41357;52.806;18.268;2023-07-08T18:04:21;5.00;;;3.00;;
55497;SDS011;41357;52.806;18.268;2023-07-08T18:06:49;4.70;;;3.03;;
55497;SDS011;41357;52.806;18.268;2023-07-08T18:09:17;6.60;;;2.78;;
55497;SDS011;41357;52.806;18.268;2023-07-08T18:11:44;3.80;;;2.97;;
55497;SDS011;41357;52.806;18.268;2023-07-08T18:14:11;5.30;;;3.15;;
55497;SDS011;41357;52.806;18.268;2023-07-08T18:16:37;6.88;;;3.35;;
55497;SDS011;41357;52.806;18.268;2023-07-08T18:19:04;7.45;;;2.88;;
55497;SDS011;41357;52.806;18.268;2023-07-08T18:21:30;8.13;;;2.75;;
55497;SDS011;41357;52.806;18.268;2023-07-08T18:23:56;4.25;;;2.60;;
55497;SDS011;41357;52.806;18.268;2023-07-08T18:26:26;11.35;;;2.75;;
55497;SDS011;41357;52.806;18.268;2023-07-08T18:28:53;7.25;;;3.13;;
55497;SDS011;41357;52.806;18.268;2023-07-08T18:31:32;6.80;;;2.90;;
55497;SDS011;41357;52.806;18.268;2023-07-08T18:33:59;8.23;;;2.90;;
55497;SDS011;41357;52.806;18.268;2023-07-08T18:36:26;9.85;;;2.90;;
55497;SDS011;41357;52.806;18.268;2023-07-08T18:38:53;8.85;;;3.80;;
55497;SDS011;41357;52.806;18.268;2023-07-08T18:41:21;9.88;;;2.97;;
55497;SDS011;41357;52.806;18.268;2023-07-08T18:43:48;4.20;;;2.90;;
55497;SDS011;41357;52.806;18.268;2023-07-08T18:46:15;3.70;;;2.60;;
55497;SDS011;41357;52.806;18.268;2023-07-08T18:48:42;8.13;;;3.08;;
55497;SDS011;41357;52.806;18.268;2023-07-08T18:51:18;5.45;;;2.60;;
55497;SDS011;41357;52.806;18.268;2023-07-08T18:53:44;5.03;;;2.80;;
55497;SDS011;41357;52.806;18.268;2023-07-08T18:56:14;5.90;;;2.70;;
55497;SDS011;41357;52.806;18.268;2023-07-08T18:58:42;5.00;;;3.13;;
55497;SDS011;41357;52.806;18.268;2023-07-08T19:01:11;6.20;;;2.67;;
55497;SDS011;41357;52.806;18.268;2023-07-08T19:06:05;7.03;;;2.83;;
55497;SDS011;41357;52.806;18.268;2023-07-08T19:08:31;6.03;;;2.70;;
55497;SDS011;41357;52.806;18.268;2023-07-08T19:10:57;4.47;;;2.80;;
55497;SDS011;41357;52.806;18.268;2023-07-08T19:13:24;10.68;;;2.90;;
55497;SDS011;41357;52.806;18.268;2023-07-08T19:15:50;7.80;;;2.60;;
55497;SDS011;41357;52.806;18.268;2023-07-08T19:18:17;5.25;;;2.70;;
55497;SDS011;41357;52.806;18.268;2023-07-08T19:20:44;6.85;;;2.83;;
55497;SDS011;41357;52.806;18.268;2023-07-08T19:25:43;6.72;;;2.58;;
55497;SDS011;41357;52.806;18.268;2023-07-08T19:28:09;3.55;;;2.83;;
55497;SDS011;41357;52.806;18.268;2023-07-08T19:30:37;7.30;;;3.15;;
55497;SDS011;41357;52.806;18.268;2023-07-08T19:33:04;4.90;;;2.88;;
55497;SDS011;41357;52.806;18.268;2023-07-08T19:35:34;6.25;;;3.20;;
55497;SDS011;41357;52.806;18.268;2023-07-08T19:38:00;6.30;;;2.97;;
55497;SDS011;41357;52.806;18.268;2023-07-08T19:40:27;5.85;;;2.72;;
55497;SDS011;41357;52.806;18.268;2023-07-08T19:42:53;5.72;;;2.70;;
55497;SDS011;41357;52.806;18.268;2023-07-08T19:45:23;12.05;;;3.35;;
55497;SDS011;41357;52.806;18.268;2023-07-08T19:47:51;5.13;;;2.80;;
55497;SDS011;41357;52.806;18.268;2023-07-08T19:50:18;4.40;;;2.95;;
55497;SDS011;41357;52.806;18.268;2023-07-08T19:52:45;10.32;;;3.17;;
55497;SDS011;41357;52.806;18.268;2023-07-08T19:55:11;5.07;;;3.25;;
55497;SDS011;41357;52.806;18.268;2023-07-08T19:57:41;8.57;;;3.17;;
55497;SDS011;41357;52.806;18.268;2023-07-08T20:00:14;8.48;;;3.30;;
55497;SDS011;41357;52.806;18.268;2023-07-08T20:02:41;5.57;;;3.10;;
55497;SDS011;41357;52.806;18.268;2023-07-08T20:05:07;7.85;;;3.65;;
55497;SDS011;41357;52.806;18.268;2023-07-08T20:07:33;6.65;;;3.72;;
55497;SDS011;41357;52.806;18.268;2023-07-08T20:09:59;8.02;;;3.85;;
55497;SDS011;41357;52.806;18.268;2023-07-08T20:12:26;8.23;;;3.58;;
55497;SDS011;41357;52.806;18.268;2023-07-08T20:14:52;7.75;;;3.90;;
55497;SDS011;41357;52.806;18.268;2023-07-08T20:17:18;7.60;;;3.42;;
55497;SDS011;41357;52.806;18.268;2023-07-08T20:19:45;5.68;;;3.15;;
55497;SDS011;41357;52.806;18.268;2023-07-08T20:22:14;8.70;;;4.00;;
55497;SDS011;41357;52.806;18.268;2023-07-08T20:24:41;6.20;;;3.15;;
55497;SDS011;41357;52.806;18.268;2023-07-08T20:27:07;8.00;;;3.00;;
55497;SDS011;41357;52.806;18.268;2023-07-08T20:29:34;5.00;;;2.45;;
55497;SDS011;41357;52.806;18.268;2023-07-08T20:32:01;5.30;;;2.70;;
55497;SDS011;41357;52.806;18.268;2023-07-08T20:34:27;8.02;;;2.90;;
55497;SDS011;41357;52.806;18.268;2023-07-08T20:36:53;3.63;;;2.97;;
55497;SDS011;41357;52.806;18.268;2023-07-08T20:39:20;8.57;;;2.55;;
55497;SDS011;41357;52.806;18.268;2023-07-08T20:41:53;7.05;;;2.75;;
55497;SDS011;41357;52.806;18.268;2023-07-08T20:44:21;7.05;;;3.15;;
55497;SDS011;41357;52.806;18.268;2023-07-08T20:46:47;9.68;;;2.90;;
55497;SDS011;41357;52.806;18.268;2023-07-08T20:49:14;6.53;;;3.25;;
55497;SDS011;41357;52.806;18.268;2023-07-08T20:51:40;5.45;;;2.78;;
55497;SDS011;41357;52.806;18.268;2023-07-08T20:54:11;4.60;;;2.63;;
55497;SDS011;41357;52.806;18.268;2023-07-08T20:56:40;7.68;;;2.30;;
55497;SDS011;41357;52.806;18.268;2023-07-08T20:59:19;6.30;;;2.80;;
55497;SDS011;41357;52.806;18.268;2023-07-08T21:01:46;3.40;;;2.53;;
55497;SDS011;41357;52.806;18.268;2023-07-08T21:04:12;4.88;;;2.53;;
55497;SDS011;41357;52.806;18.268;2023-07-08T21:06:38;3.83;;;2.67;;
55497;SDS011;41357;52.806;18.268;2023-07-08T21:09:04;4.97;;;2.53;;
55497;SDS011;41357;52.806;18.268;2023-07-08T21:11:31;4.80;;;2.70;;
55497;SDS011;41357;52.806;18.268;2023-07-08T21:13:57;5.43;;;2.90;;
55497;SDS011;41357;52.806;18.268;2023-07-08T21:16:26;6.47;;;2.83;;
55497;SDS011;41357;52.806;18.268;2023-07-08T21:18:53;5.80;;;2.70;;
55497;SDS011;41357;52.806;18.268;2023-07-08T21:21:21;4.28;;;2.53;;
55497;SDS011;41357;52.806;18.268;2023-07-08T21:23:47;4.18;;;2.60;;
55497;SDS011;41357;52.806;18.268;2023-07-08T21:26:27;5.53;;;2.53;;
55497;SDS011;41357;52.806;18.268;2023-07-08T21:28:58;3.88;;;2.47;;
55497;SDS011;41357;52.806;18.268;2023-07-08T21:31:24;7.93;;;2.70;;
55497;SDS011;41357;52.806;18.268;2023-07-08T21:33:51;3.63;;;2.40;;
55497;SDS011;41357;52.806;18.268;2023-07-08T21:39:04;4.20;;;2.45;;
55497;SDS011;41357;52.806;18.268;2023-07-08T21:41:35;4.63;;;3.22;;
55497;SDS011;41357;52.806;18.268;2023-07-08T21:44:01;4.97;;;2.70;;
55497;SDS011;41357;52.806;18.268;2023-07-08T21:46:27;4.85;;;2.53;;
55497;SDS011;41357;52.806;18.268;2023-07-08T21:48:53;9.30;;;2.92;;
55497;SDS011;41357;52.806;18.268;2023-07-08T21:53:46;10.68;;;2.58;;
55497;SDS011;41357;52.806;18.268;2023-07-08T21:56:13;5.22;;;2.20;;
55497;SDS011;41357;52.806;18.268;2023-07-08T21:58:40;4.47;;;2.20;;
55497;SDS011;41357;52.806;18.268;2023-07-08T22:01:11;4.38;;;2.50;;
55497;SDS011;41357;52.806;18.268;2023-07-08T22:03:39;7.68;;;2.58;;
55497;SDS011;41357;52.806;18.268;2023-07-08T22:06:05;5.05;;;2.55;;
55497;SDS011;41357;52.806;18.268;2023-07-08T22:08:31;4.63;;;2.47;;
55497;SDS011;41357;52.806;18.268;2023-07-08T22:10:58;3.78;;;2.58;;
55497;SDS011;41357;52.806;18.268;2023-07-08T22:15:54;4.55;;;2.60;;
55497;SDS011;41357;52.806;18.268;2023-07-08T22:18:20;4.90;;;2.30;;
55497;SDS011;41357;52.806;18.268;2023-07-08T22:21:10;9.45;;;2.60;;
55497;SDS011;41357;52.806;18.268;2023-07-08T22:23:33;5.00;;;2.20;;
55497;SDS011;41357;52.806;18.268;2023-07-08T22:26:00;6.43;;;2.20;;
55497;SDS011;41357;52.806;18.268;2023-07-08T22:28:26;6.10;;;2.67;;
55497;SDS011;41357;52.806;18.268;2023-07-08T22:30:52;3.78;;;2.05;;
55497;SDS011;41357;52.806;18.268;2023-07-08T22:33:19;2.88;;;2.05;;
55497;SDS011;41357;52.806;18.268;2023-07-08T22:35:45;5.18;;;2.50;;
55497;SDS011;41357;52.806;18.268;2023-07-08T22:38:12;5.18;;;3.00;;
55497;SDS011;41357;52.806;18.268;2023-07-08T22:40:42;5.82;;;2.33;;
55497;SDS011;41357;52.806;18.268;2023-07-08T22:43:13;5.95;;;2.03;;
55497;SDS011;41357;52.806;18.268;2023-07-08T22:45:41;4.25;;;2.17;;
55497;SDS011;41357;52.806;18.268;2023-07-08T22:48:08;3.78;;;2.33;;
55497;SDS011;41357;52.806;18.268;2023-07-08T22:50:35;4.32;;;2.15;;
55497;SDS011;41357;52.806;18.268;2023-07-08T22:53:02;6.57;;;2.00;;
55497;SDS011;41357;52.806;18.268;2023-07-08T22:55:30;4.68;;;2.25;;
55497;SDS011;41357;52.806;18.268;2023-07-08T22:58:00;4.63;;;2.00;;
55497;SDS011;41357;52.806;18.268;2023-07-08T23:00:27;4.35;;;2.30;;
55497;SDS011;41357;52.806;18.268;2023-07-08T23:02:53;2.97;;;2.10;;
55497;SDS011;41357;52.806;18.268;2023-07-08T23:05:26;4.53;;;2.47;;
55497;SDS011;41357;52.806;18.268;2023-07-08T23:07:53;3.10;;;2.08;;
55497;SDS011;41357;52.806;18.268;2023-07-08T23:10:19;5.38;;;2.30;;
55497;SDS011;41357;52.806;18.268;2023-07-08T23:12:45;8.05;;;2.20;;
55497;SDS011;41357;52.806;18.268;2023-07-08T23:15:11;2.90;;;2.00;;
55497;SDS011;41357;52.806;18.268;2023-07-08T23:17:39;4.43;;;2.00;;
55497;SDS011;41357;52.806;18.268;2023-07-08T23:20:11;4.00;;;2.05;;
55497;SDS011;41357;52.806;18.268;2023-07-08T23:22:40;7.35;;;2.10;;
55497;SDS011;41357;52.806;18.268;2023-07-08T23:25:06;3.38;;;2.35;;
55497;SDS011;41357;52.806;18.268;2023-07-08T23:27:33;3.65;;;2.30;;
55497;SDS011;41357;52.806;18.268;2023-07-08T23:29:59;4.40;;;2.53;;
55497;SDS011;41357;52.806;18.268;2023-07-08T23:32:25;2.70;;;1.95;;
55497;SDS011;41357;52.806;18.268;2023-07-08T23:34:52;5.60;;;2.20;;
55497;SDS011;41357;52.806;18.268;2023-07-08T23:37:18;2.88;;;2.15;;
55497;SDS011;41357;52.806;18.268;2023-07-08T23:39:49;5.55;;;2.40;;
55497;SDS011;41357;52.806;18.268;2023-07-08T23:42:15;5.32;;;2.42;;
55497;SDS011;41357;52.806;18.268;2023-07-08T23:44:41;6.03;;;2.55;;
55497;SDS011;41357;52.806;18.268;2023-07-08T23:49:38;4.13;;;2.22;;
55497;SDS011;41357;52.806;18.268;2023-07-08T23:52:08;4.07;;;1.90;;
55497;SDS011;41357;52.806;18.268;2023-07-08T23:54:38;3.40;;;1.98;;
55497;SDS011;41357;52.806;18.268;2023-07-08T23:57:05;4.25;;;1.95;;
55497;SDS011;41357;52.806;18.268;2023-07-08T23:59:35;4.63;;;2.30;;
